sensor_id;sensor_type;location;lat;lon;timestamp;temperature;humidity
65231;DHT22;51813;40.666;16.602;2022-08-14T00:01:24;24.70;60.40
65231;DHT22;51813;40.666;16.602;2022-08-14T00:03:49;24.70;60.30
65231;DHT22;51813;40.666;16.602;2022-08-14T00:06:15;24.70;60.20
65231;DHT22;51813;40.666;16.602;2022-08-14T00:08:41;24.70;60.00
65231;DHT22;51813;40.666;16.602;2022-08-14T00:11:07;24.70;60.00
65231;DHT22;51813;40.666;16.602;2022-08-14T00:13:33;24.70;60.20
65231;DHT22;51813;40.666;16.602;2022-08-14T00:16:00;24.60;60.10
65231;DHT22;51813;40.666;16.602;2022-08-14T00:18:27;24.60;60.20
65231;DHT22;51813;40.666;16.602;2022-08-14T00:20:54;24.60;60.20
65231;DHT22;51813;40.666;16.602;2022-08-14T00:23:21;24.60;59.90
65231;DHT22;51813;40.666;16.602;2022-08-14T00:25:50;24.60;60.00
65231;DHT22;51813;40.666;16.602;2022-08-14T00:28:16;24.60;60.00
65231;DHT22;51813;40.666;16.602;2022-08-14T00:30:42;24.70;59.90
65231;DHT22;51813;40.666;16.602;2022-08-14T00:33:08;24.70;59.80
65231;DHT22;51813;40.666;16.602;2022-08-14T00:35:34;24.70;59.80
65231;DHT22;51813;40.666;16.602;2022-08-14T00:38:00;24.60;59.80
65231;DHT22;51813;40.666;16.602;2022-08-14T00:40:26;24.60;59.70
65231;DHT22;51813;40.666;16.602;2022-08-14T00:42:52;24.60;59.60
65231;DHT22;51813;40.666;16.602;2022-08-14T00:45:18;24.70;59.50
65231;DHT22;51813;40.666;16.602;2022-08-14T00:47:46;24.70;59.50
65231;DHT22;51813;40.666;16.602;2022-08-14T00:50:17;24.60;59.80
65231;DHT22;51813;40.666;16.602;2022-08-14T00:52:46;24.60;59.70
65231;DHT22;51813;40.666;16.602;2022-08-14T00:55:12;24.60;59.50
65231;DHT22;51813;40.666;16.602;2022-08-14T00:57:39;24.60;59.40
65231;DHT22;51813;40.666;16.602;2022-08-14T01:00:12;24.60;59.50
65231;DHT22;51813;40.666;16.602;2022-08-14T01:02:41;24.60;59.50
65231;DHT22;51813;40.666;16.602;2022-08-14T01:05:09;24.60;59.50
65231;DHT22;51813;40.666;16.602;2022-08-14T01:07:53;24.60;59.20
65231;DHT22;51813;40.666;16.602;2022-08-14T01:10:27;24.60;59.20
65231;DHT22;51813;40.666;16.602;2022-08-14T01:13:19;24.60;59.10
65231;DHT22;51813;40.666;16.602;2022-08-14T01:15:48;24.60;59.30
65231;DHT22;51813;40.666;16.602;2022-08-14T01:18:14;24.60;59.30
65231;DHT22;51813;40.666;16.602;2022-08-14T01:20:59;24.60;59.10
65231;DHT22;51813;40.666;16.602;2022-08-14T01:23:29;24.60;59.00
65231;DHT22;51813;40.666;16.602;2022-08-14T01:25:56;24.60;59.10
65231;DHT22;51813;40.666;16.602;2022-08-14T01:28:23;24.50;59.00
65231;DHT22;51813;40.666;16.602;2022-08-14T01:30:51;24.50;58.90
65231;DHT22;51813;40.666;16.602;2022-08-14T01:33:21;24.50;58.90
65231;DHT22;51813;40.666;16.602;2022-08-14T01:35:47;24.50;58.80
65231;DHT22;51813;40.666;16.602;2022-08-14T01:38:13;24.50;58.60
65231;DHT22;51813;40.666;16.602;2022-08-14T01:40:40;24.50;59.00
65231;DHT22;51813;40.666;16.602;2022-08-14T01:43:13;24.50;58.80
65231;DHT22;51813;40.666;16.602;2022-08-14T01:45:40;24.50;58.60
65231;DHT22;51813;40.666;16.602;2022-08-14T01:48:07;24.50;58.60
65231;DHT22;51813;40.666;16.602;2022-08-14T01:50:33;24.50;58.60
65231;DHT22;51813;40.666;16.602;2022-08-14T01:52:59;24.50;58.40
65231;DHT22;51813;40.666;16.602;2022-08-14T01:55:26;24.50;58.30
65231;DHT22;51813;40.666;16.602;2022-08-14T01:57:56;24.50;58.20
65231;DHT22;51813;40.666;16.602;2022-08-14T02:00:22;24.50;58.30
65231;DHT22;51813;40.666;16.602;2022-08-14T02:02:48;24.50;58.40
65231;DHT22;51813;40.666;16.602;2022-08-14T02:05:14;24.50;58.70
65231;DHT22;51813;40.666;16.602;2022-08-14T02:07:41;24.50;58.40
65231;DHT22;51813;40.666;16.602;2022-08-14T02:10:09;24.50;58.30
65231;DHT22;51813;40.666;16.602;2022-08-14T02:12:35;24.50;58.30
65231;DHT22;51813;40.666;16.602;2022-08-14T02:15:03;24.50;58.20
65231;DHT22;51813;40.666;16.602;2022-08-14T02:17:29;24.50;57.90
65231;DHT22;51813;40.666;16.602;2022-08-14T02:19:57;24.50;57.70
65231;DHT22;51813;40.666;16.602;2022-08-14T02:22:23;24.50;57.90
65231;DHT22;51813;40.666;16.602;2022-08-14T02:24:48;24.50;57.90
65231;DHT22;51813;40.666;16.602;2022-08-14T02:27:15;24.40;57.80
65231;DHT22;51813;40.666;16.602;2022-08-14T02:29:42;24.50;58.10
65231;DHT22;51813;40.666;16.602;2022-08-14T02:32:08;24.50;58.00
65231;DHT22;51813;40.666;16.602;2022-08-14T02:34:36;24.50;57.70
65231;DHT22;51813;40.666;16.602;2022-08-14T02:37:08;24.50;57.60
65231;DHT22;51813;40.666;16.602;2022-08-14T02:39:40;24.50;57.40
65231;DHT22;51813;40.666;16.602;2022-08-14T02:42:08;24.50;57.20
65231;DHT22;51813;40.666;16.602;2022-08-14T02:44:34;24.50;57.10
65231;DHT22;51813;40.666;16.602;2022-08-14T02:46:59;24.50;56.90
65231;DHT22;51813;40.666;16.602;2022-08-14T02:49:25;24.50;56.80
65231;DHT22;51813;40.666;16.602;2022-08-14T02:51:55;24.40;57.10
65231;DHT22;51813;40.666;16.602;2022-08-14T02:54:21;24.50;57.20
65231;DHT22;51813;40.666;16.602;2022-08-14T02:56:49;24.50;56.90
65231;DHT22;51813;40.666;16.602;2022-08-14T02:59:16;24.50;57.00
65231;DHT22;51813;40.666;16.602;2022-08-14T03:01:42;24.50;57.00
65231;DHT22;51813;40.666;16.602;2022-08-14T03:04:07;24.40;56.70
65231;DHT22;51813;40.666;16.602;2022-08-14T03:06:35;24.40;56.40
65231;DHT22;51813;40.666;16.602;2022-08-14T03:09:03;24.50;56.50
65231;DHT22;51813;40.666;16.602;2022-08-14T03:11:29;24.40;56.30
65231;DHT22;51813;40.666;16.602;2022-08-14T03:13:55;24.40;57.00
65231;DHT22;51813;40.666;16.602;2022-08-14T03:16:23;24.40;56.20
65231;DHT22;51813;40.666;16.602;2022-08-14T03:18:51;24.40;56.90
65231;DHT22;51813;40.666;16.602;2022-08-14T03:21:21;24.40;56.50
65231;DHT22;51813;40.666;16.602;2022-08-14T03:23:50;24.40;56.60
65231;DHT22;51813;40.666;16.602;2022-08-14T03:26:21;24.40;56.40
65231;DHT22;51813;40.666;16.602;2022-08-14T03:28:51;24.40;56.00
65231;DHT22;51813;40.666;16.602;2022-08-14T03:31:18;24.40;55.90
65231;DHT22;51813;40.666;16.602;2022-08-14T03:33:47;24.40;55.90
65231;DHT22;51813;40.666;16.602;2022-08-14T03:36:15;24.40;55.90
65231;DHT22;51813;40.666;16.602;2022-08-14T03:38:45;24.40;56.00
65231;DHT22;51813;40.666;16.602;2022-08-14T03:41:13;24.40;56.00
65231;DHT22;51813;40.666;16.602;2022-08-14T03:43:51;24.40;56.20
65231;DHT22;51813;40.666;16.602;2022-08-14T03:46:22;24.40;56.00
65231;DHT22;51813;40.666;16.602;2022-08-14T03:48:48;24.40;56.00
65231;DHT22;51813;40.666;16.602;2022-08-14T03:51:13;24.40;55.90
65231;DHT22;51813;40.666;16.602;2022-08-14T03:53:43;24.40;55.90
65231;DHT22;51813;40.666;16.602;2022-08-14T03:56:11;24.40;55.60
65231;DHT22;51813;40.666;16.602;2022-08-14T03:58:40;24.40;55.60
65231;DHT22;51813;40.666;16.602;2022-08-14T04:01:10;24.40;55.60
65231;DHT22;51813;40.666;16.602;2022-08-14T04:03:37;24.40;55.30
65231;DHT22;51813;40.666;16.602;2022-08-14T04:06:03;24.40;55.70
65231;DHT22;51813;40.666;16.602;2022-08-14T04:08:29;24.30;55.70
65231;DHT22;51813;40.666;16.602;2022-08-14T04:10:55;24.40;55.60
65231;DHT22;51813;40.666;16.602;2022-08-14T04:13:21;24.40;55.60
65231;DHT22;51813;40.666;16.602;2022-08-14T04:15:47;24.40;55.50
65231;DHT22;51813;40.666;16.602;2022-08-14T04:18:13;24.40;55.10
65231;DHT22;51813;40.666;16.602;2022-08-14T04:20:40;24.30;55.70
65231;DHT22;51813;40.666;16.602;2022-08-14T04:23:08;24.30;54.70
65231;DHT22;51813;40.666;16.602;2022-08-14T04:25:34;24.30;55.00
65231;DHT22;51813;40.666;16.602;2022-08-14T04:28:02;24.30;54.80
65231;DHT22;51813;40.666;16.602;2022-08-14T04:30:30;24.30;54.80
65231;DHT22;51813;40.666;16.602;2022-08-14T04:32:57;24.30;55.20
65231;DHT22;51813;40.666;16.602;2022-08-14T04:35:23;24.40;55.30
65231;DHT22;51813;40.666;16.602;2022-08-14T04:37:49;24.30;54.90
65231;DHT22;51813;40.666;16.602;2022-08-14T04:40:33;24.30;54.90
65231;DHT22;51813;40.666;16.602;2022-08-14T04:43:17;24.30;54.70
65231;DHT22;51813;40.666;16.602;2022-08-14T04:46:06;24.30;54.50
65231;DHT22;51813;40.666;16.602;2022-08-14T04:48:32;24.30;54.10
65231;DHT22;51813;40.666;16.602;2022-08-14T04:50:59;24.30;53.90
65231;DHT22;51813;40.666;16.602;2022-08-14T04:53:27;24.30;54.30
65231;DHT22;51813;40.666;16.602;2022-08-14T04:55:54;24.30;55.00
65231;DHT22;51813;40.666;16.602;2022-08-14T04:58:27;24.30;54.40
65231;DHT22;51813;40.666;16.602;2022-08-14T05:00:54;24.30;54.40
65231;DHT22;51813;40.666;16.602;2022-08-14T05:03:22;24.30;54.40
65231;DHT22;51813;40.666;16.602;2022-08-14T05:05:54;24.30;54.20
65231;DHT22;51813;40.666;16.602;2022-08-14T05:08:20;24.30;54.10
65231;DHT22;51813;40.666;16.602;2022-08-14T05:10:52;24.30;54.10
65231;DHT22;51813;40.666;16.602;2022-08-14T05:13:21;24.30;54.20
65231;DHT22;51813;40.666;16.602;2022-08-14T05:15:49;24.30;53.80
65231;DHT22;51813;40.666;16.602;2022-08-14T05:18:19;24.30;54.40
65231;DHT22;51813;40.666;16.602;2022-08-14T05:20:50;24.30;54.50
65231;DHT22;51813;40.666;16.602;2022-08-14T05:23:19;24.30;54.60
65231;DHT22;51813;40.666;16.602;2022-08-14T05:25:47;24.30;53.70
65231;DHT22;51813;40.666;16.602;2022-08-14T05:28:16;24.30;53.90
65231;DHT22;51813;40.666;16.602;2022-08-14T05:30:49;24.20;53.90
65231;DHT22;51813;40.666;16.602;2022-08-14T05:33:16;24.10;53.70
65231;DHT22;51813;40.666;16.602;2022-08-14T05:35:46;24.10;53.90
65231;DHT22;51813;40.666;16.602;2022-08-14T05:38:15;24.10;54.10
65231;DHT22;51813;40.666;16.602;2022-08-14T05:40:42;24.00;53.70
65231;DHT22;51813;40.666;16.602;2022-08-14T05:43:08;23.90;54.20
65231;DHT22;51813;40.666;16.602;2022-08-14T05:45:34;24.00;53.90
65231;DHT22;51813;40.666;16.602;2022-08-14T05:48:04;24.10;54.80
65231;DHT22;51813;40.666;16.602;2022-08-14T05:50:31;24.20;53.70
65231;DHT22;51813;40.666;16.602;2022-08-14T05:52:57;24.20;53.80
65231;DHT22;51813;40.666;16.602;2022-08-14T05:55:23;24.20;53.50
65231;DHT22;51813;40.666;16.602;2022-08-14T05:58:01;24.20;53.70
65231;DHT22;51813;40.666;16.602;2022-08-14T06:00:36;24.10;53.60
65231;DHT22;51813;40.666;16.602;2022-08-14T06:03:04;24.10;53.70
65231;DHT22;51813;40.666;16.602;2022-08-14T06:05:30;24.00;53.80
65231;DHT22;51813;40.666;16.602;2022-08-14T06:07:59;24.10;53.90
65231;DHT22;51813;40.666;16.602;2022-08-14T06:10:27;24.00;53.80
65231;DHT22;51813;40.666;16.602;2022-08-14T06:12:53;24.00;54.20
65231;DHT22;51813;40.666;16.602;2022-08-14T06:15:19;24.10;54.10
65231;DHT22;51813;40.666;16.602;2022-08-14T06:17:50;24.20;54.10
65231;DHT22;51813;40.666;16.602;2022-08-14T06:20:17;24.20;54.00
65231;DHT22;51813;40.666;16.602;2022-08-14T06:22:44;24.10;54.00
65231;DHT22;51813;40.666;16.602;2022-08-14T06:25:12;24.10;54.10
65231;DHT22;51813;40.666;16.602;2022-08-14T06:27:40;24.20;54.10
65231;DHT22;51813;40.666;16.602;2022-08-14T06:30:11;24.20;53.90
65231;DHT22;51813;40.666;16.602;2022-08-14T06:32:37;24.20;54.10
65231;DHT22;51813;40.666;16.602;2022-08-14T06:35:04;24.20;54.30
65231;DHT22;51813;40.666;16.602;2022-08-14T06:40:34;24.20;54.00
65231;DHT22;51813;40.666;16.602;2022-08-14T06:43:06;24.10;54.10
65231;DHT22;51813;40.666;16.602;2022-08-14T06:45:34;24.10;54.30
65231;DHT22;51813;40.666;16.602;2022-08-14T06:48:00;24.10;54.40
65231;DHT22;51813;40.666;16.602;2022-08-14T06:50:27;24.10;54.30
65231;DHT22;51813;40.666;16.602;2022-08-14T06:52:53;24.10;54.30
65231;DHT22;51813;40.666;16.602;2022-08-14T06:55:19;24.20;54.30
65231;DHT22;51813;40.666;16.602;2022-08-14T06:57:47;24.10;54.50
65231;DHT22;51813;40.666;16.602;2022-08-14T07:00:18;24.00;54.70
65231;DHT22;51813;40.666;16.602;2022-08-14T07:02:45;23.90;55.00
65231;DHT22;51813;40.666;16.602;2022-08-14T07:05:29;23.90;55.30
65231;DHT22;51813;40.666;16.602;2022-08-14T07:08:16;23.90;55.60
65231;DHT22;51813;40.666;16.602;2022-08-14T07:10:44;23.90;55.50
65231;DHT22;51813;40.666;16.602;2022-08-14T07:13:11;23.90;55.50
65231;DHT22;51813;40.666;16.602;2022-08-14T07:15:39;23.80;56.00
65231;DHT22;51813;40.666;16.602;2022-08-14T07:18:07;23.80;55.90
65231;DHT22;51813;40.666;16.602;2022-08-14T07:20:33;23.90;56.00
65231;DHT22;51813;40.666;16.602;2022-08-14T07:23:00;23.90;55.90
65231;DHT22;51813;40.666;16.602;2022-08-14T07:25:28;23.90;55.90
65231;DHT22;51813;40.666;16.602;2022-08-14T07:27:54;23.90;56.30
65231;DHT22;51813;40.666;16.602;2022-08-14T07:30:20;23.70;56.40
65231;DHT22;51813;40.666;16.602;2022-08-14T07:32:47;23.80;56.70
65231;DHT22;51813;40.666;16.602;2022-08-14T07:35:12;23.80;56.70
65231;DHT22;51813;40.666;16.602;2022-08-14T07:37:38;23.70;56.80
65231;DHT22;51813;40.666;16.602;2022-08-14T07:40:05;23.70;56.90
65231;DHT22;51813;40.666;16.602;2022-08-14T07:42:30;23.70;56.90
65231;DHT22;51813;40.666;16.602;2022-08-14T07:44:58;23.80;57.00
65231;DHT22;51813;40.666;16.602;2022-08-14T07:47:25;23.80;57.10
65231;DHT22;51813;40.666;16.602;2022-08-14T07:50:02;23.80;57.20
65231;DHT22;51813;40.666;16.602;2022-08-14T07:52:28;23.80;57.30
65231;DHT22;51813;40.666;16.602;2022-08-14T07:54:54;23.90;57.20
65231;DHT22;51813;40.666;16.602;2022-08-14T07:57:20;23.90;57.40
65231;DHT22;51813;40.666;16.602;2022-08-14T07:59:46;23.90;57.60
65231;DHT22;51813;40.666;16.602;2022-08-14T08:02:14;23.80;57.80
65231;DHT22;51813;40.666;16.602;2022-08-14T08:04:43;23.80;57.90
65231;DHT22;51813;40.666;16.602;2022-08-14T08:07:11;23.70;58.20
65231;DHT22;51813;40.666;16.602;2022-08-14T08:09:47;23.70;58.50
65231;DHT22;51813;40.666;16.602;2022-08-14T08:12:16;23.70;59.10
65231;DHT22;51813;40.666;16.602;2022-08-14T08:14:43;23.70;58.60
65231;DHT22;51813;40.666;16.602;2022-08-14T08:17:09;23.60;58.90
65231;DHT22;51813;40.666;16.602;2022-08-14T08:19:35;23.80;58.50
65231;DHT22;51813;40.666;16.602;2022-08-14T08:22:03;23.90;58.30
65231;DHT22;51813;40.666;16.602;2022-08-14T08:24:30;24.00;58.10
65231;DHT22;51813;40.666;16.602;2022-08-14T08:26:55;24.00;58.00
65231;DHT22;51813;40.666;16.602;2022-08-14T08:29:22;24.00;57.90
65231;DHT22;51813;40.666;16.602;2022-08-14T08:31:51;24.00;58.00
65231;DHT22;51813;40.666;16.602;2022-08-14T08:34:18;24.00;58.10
65231;DHT22;51813;40.666;16.602;2022-08-14T08:36:44;24.00;58.20
65231;DHT22;51813;40.666;16.602;2022-08-14T08:39:10;23.80;58.60
65231;DHT22;51813;40.666;16.602;2022-08-14T08:41:41;23.90;58.60
65231;DHT22;51813;40.666;16.602;2022-08-14T08:44:07;23.90;58.60
65231;DHT22;51813;40.666;16.602;2022-08-14T08:46:33;23.90;58.50
65231;DHT22;51813;40.666;16.602;2022-08-14T08:48:59;24.00;58.30
65231;DHT22;51813;40.666;16.602;2022-08-14T08:51:36;24.00;58.10
65231;DHT22;51813;40.666;16.602;2022-08-14T08:54:12;24.10;58.20
65231;DHT22;51813;40.666;16.602;2022-08-14T08:56:43;24.00;58.30
65231;DHT22;51813;40.666;16.602;2022-08-14T08:59:24;23.90;58.90
65231;DHT22;51813;40.666;16.602;2022-08-14T09:01:59;23.90;58.20
65231;DHT22;51813;40.666;16.602;2022-08-14T09:04:47;23.90;58.50
65231;DHT22;51813;40.666;16.602;2022-08-14T09:07:12;23.90;58.30
65231;DHT22;51813;40.666;16.602;2022-08-14T09:09:39;23.80;58.40
65231;DHT22;51813;40.666;16.602;2022-08-14T09:12:17;23.80;58.50
65231;DHT22;51813;40.666;16.602;2022-08-14T09:14:44;23.80;58.40
65231;DHT22;51813;40.666;16.602;2022-08-14T09:17:12;23.90;58.20
65231;DHT22;51813;40.666;16.602;2022-08-14T09:19:39;23.90;58.00
65231;DHT22;51813;40.666;16.602;2022-08-14T09:22:05;23.80;58.10
65231;DHT22;51813;40.666;16.602;2022-08-14T09:24:31;23.90;58.00
65231;DHT22;51813;40.666;16.602;2022-08-14T09:26:57;23.80;57.80
65231;DHT22;51813;40.666;16.602;2022-08-14T09:29:23;23.90;58.10
65231;DHT22;51813;40.666;16.602;2022-08-14T09:31:54;24.00;57.40
65231;DHT22;51813;40.666;16.602;2022-08-14T09:37:33;24.10;57.00
65231;DHT22;51813;40.666;16.602;2022-08-14T09:40:31;24.00;56.90
65231;DHT22;51813;40.666;16.602;2022-08-14T09:45:55;24.10;56.90
65231;DHT22;51813;40.666;16.602;2022-08-14T09:48:24;24.10;56.60
65231;DHT22;51813;40.666;16.602;2022-08-14T09:50:52;24.10;56.20
65231;DHT22;51813;40.666;16.602;2022-08-14T09:55:59;24.10;55.80
65231;DHT22;51813;40.666;16.602;2022-08-14T09:58:36;24.20;55.90
65231;DHT22;51813;40.666;16.602;2022-08-14T10:01:17;24.20;55.70
65231;DHT22;51813;40.666;16.602;2022-08-14T10:03:53;24.20;55.40
65231;DHT22;51813;40.666;16.602;2022-08-14T10:06:22;24.20;54.50
65231;DHT22;51813;40.666;16.602;2022-08-14T10:08:57;24.10;54.50
65231;DHT22;51813;40.666;16.602;2022-08-14T10:11:30;24.20;54.20
65231;DHT22;51813;40.666;16.602;2022-08-14T10:16:43;24.10;53.70
65231;DHT22;51813;40.666;16.602;2022-08-14T10:19:12;24.10;53.70
65231;DHT22;51813;40.666;16.602;2022-08-14T10:21:39;24.20;53.50
65231;DHT22;51813;40.666;16.602;2022-08-14T10:24:09;24.30;53.20
65231;DHT22;51813;40.666;16.602;2022-08-14T10:29:05;24.30;53.90
65231;DHT22;51813;40.666;16.602;2022-08-14T10:31:32;24.30;54.20
65231;DHT22;51813;40.666;16.602;2022-08-14T10:34:05;24.30;54.30
65231;DHT22;51813;40.666;16.602;2022-08-14T10:36:33;24.40;54.60
65231;DHT22;51813;40.666;16.602;2022-08-14T10:39:03;24.40;54.90
65231;DHT22;51813;40.666;16.602;2022-08-14T10:41:39;24.30;55.10
65231;DHT22;51813;40.666;16.602;2022-08-14T10:44:14;24.30;55.30
65231;DHT22;51813;40.666;16.602;2022-08-14T10:46:52;24.40;55.10
65231;DHT22;51813;40.666;16.602;2022-08-14T10:49:23;24.50;54.80
65231;DHT22;51813;40.666;16.602;2022-08-14T10:54:45;24.40;54.80
65231;DHT22;51813;40.666;16.602;2022-08-14T10:59:51;24.30;55.00
65231;DHT22;51813;40.666;16.602;2022-08-14T11:02:23;24.30;55.00
65231;DHT22;51813;40.666;16.602;2022-08-14T11:05:00;24.40;54.80
65231;DHT22;51813;40.666;16.602;2022-08-14T11:07:27;24.40;55.00
65231;DHT22;51813;40.666;16.602;2022-08-14T11:09:59;24.50;54.90
65231;DHT22;51813;40.666;16.602;2022-08-14T11:12:26;24.50;54.60
65231;DHT22;51813;40.666;16.602;2022-08-14T11:15:03;24.50;54.50
65231;DHT22;51813;40.666;16.602;2022-08-14T11:17:33;24.50;54.30
65231;DHT22;51813;40.666;16.602;2022-08-14T11:20:06;24.40;54.40
65231;DHT22;51813;40.666;16.602;2022-08-14T11:22:32;24.40;54.30
65231;DHT22;51813;40.666;16.602;2022-08-14T11:25:03;24.40;54.20
65231;DHT22;51813;40.666;16.602;2022-08-14T11:27:31;24.40;54.10
65231;DHT22;51813;40.666;16.602;2022-08-14T11:30:05;24.40;54.00
65231;DHT22;51813;40.666;16.602;2022-08-14T11:32:31;24.40;54.10
65231;DHT22;51813;40.666;16.602;2022-08-14T11:35:00;24.40;54.20
65231;DHT22;51813;40.666;16.602;2022-08-14T11:37:28;24.40;54.30
65231;DHT22;51813;40.666;16.602;2022-08-14T11:39:54;24.40;54.20
65231;DHT22;51813;40.666;16.602;2022-08-14T11:42:23;24.40;54.00
65231;DHT22;51813;40.666;16.602;2022-08-14T11:44:50;24.40;54.20
65231;DHT22;51813;40.666;16.602;2022-08-14T11:47:17;24.40;54.10
65231;DHT22;51813;40.666;16.602;2022-08-14T11:49:48;24.40;54.30
65231;DHT22;51813;40.666;16.602;2022-08-14T11:52:14;24.40;54.30
65231;DHT22;51813;40.666;16.602;2022-08-14T11:54:41;24.40;54.40
65231;DHT22;51813;40.666;16.602;2022-08-14T11:57:16;24.30;54.30
65231;DHT22;51813;40.666;16.602;2022-08-14T11:59:42;24.40;54.30
65231;DHT22;51813;40.666;16.602;2022-08-14T12:02:13;24.40;54.10
65231;DHT22;51813;40.666;16.602;2022-08-14T12:04:48;24.40;54.20
65231;DHT22;51813;40.666;16.602;2022-08-14T12:07:15;24.50;54.40
65231;DHT22;51813;40.666;16.602;2022-08-14T12:09:41;24.40;54.20
65231;DHT22;51813;40.666;16.602;2022-08-14T12:12:25;24.50;54.30
65231;DHT22;51813;40.666;16.602;2022-08-14T12:14:57;24.40;54.40
65231;DHT22;51813;40.666;16.602;2022-08-14T12:17:29;24.40;54.50
65231;DHT22;51813;40.666;16.602;2022-08-14T12:20:00;24.40;54.40
65231;DHT22;51813;40.666;16.602;2022-08-14T12:25:10;24.40;54.90
65231;DHT22;51813;40.666;16.602;2022-08-14T12:27:42;24.40;55.00
65231;DHT22;51813;40.666;16.602;2022-08-14T12:30:11;24.30;55.20
65231;DHT22;51813;40.666;16.602;2022-08-14T12:32:41;24.30;55.30
65231;DHT22;51813;40.666;16.602;2022-08-14T12:35:08;24.40;55.20
65231;DHT22;51813;40.666;16.602;2022-08-14T12:37:35;24.40;54.90
65231;DHT22;51813;40.666;16.602;2022-08-14T12:40:12;24.30;54.30
65231;DHT22;51813;40.666;16.602;2022-08-14T12:42:38;24.30;54.40
65231;DHT22;51813;40.666;16.602;2022-08-14T12:45:05;24.30;54.10
65231;DHT22;51813;40.666;16.602;2022-08-14T12:47:31;24.30;54.10
65231;DHT22;51813;40.666;16.602;2022-08-14T12:49:57;24.30;53.90
65231;DHT22;51813;40.666;16.602;2022-08-14T12:52:27;24.30;53.80
65231;DHT22;51813;40.666;16.602;2022-08-14T12:55:03;24.30;53.80
65231;DHT22;51813;40.666;16.602;2022-08-14T12:57:43;24.30;53.80
65231;DHT22;51813;40.666;16.602;2022-08-14T13:00:22;24.30;53.80
65231;DHT22;51813;40.666;16.602;2022-08-14T13:02:53;24.30;54.10
65231;DHT22;51813;40.666;16.602;2022-08-14T13:05:21;24.30;54.10
65231;DHT22;51813;40.666;16.602;2022-08-14T13:07:47;24.30;54.20
65231;DHT22;51813;40.666;16.602;2022-08-14T13:10:17;24.30;54.00
65231;DHT22;51813;40.666;16.602;2022-08-14T13:12:45;24.30;53.90
65231;DHT22;51813;40.666;16.602;2022-08-14T13:15:13;24.30;53.80
65231;DHT22;51813;40.666;16.602;2022-08-14T13:17:42;24.30;53.40
65231;DHT22;51813;40.666;16.602;2022-08-14T13:20:09;24.40;53.40
65231;DHT22;51813;40.666;16.602;2022-08-14T13:22:37;24.40;53.50
65231;DHT22;51813;40.666;16.602;2022-08-14T13:25:06;24.30;53.50
65231;DHT22;51813;40.666;16.602;2022-08-14T13:27:32;24.40;53.30
65231;DHT22;51813;40.666;16.602;2022-08-14T13:30:02;24.40;53.30
65231;DHT22;51813;40.666;16.602;2022-08-14T13:32:28;24.40;53.00
65231;DHT22;51813;40.666;16.602;2022-08-14T13:34:55;24.40;52.60
65231;DHT22;51813;40.666;16.602;2022-08-14T13:37:22;24.40;52.50
65231;DHT22;51813;40.666;16.602;2022-08-14T13:39:51;24.40;52.60
65231;DHT22;51813;40.666;16.602;2022-08-14T13:42:18;24.40;52.60
65231;DHT22;51813;40.666;16.602;2022-08-14T13:44:48;24.50;52.70
65231;DHT22;51813;40.666;16.602;2022-08-14T13:47:16;24.50;52.40
65231;DHT22;51813;40.666;16.602;2022-08-14T13:49:45;24.50;52.60
65231;DHT22;51813;40.666;16.602;2022-08-14T13:52:15;24.50;52.40
65231;DHT22;51813;40.666;16.602;2022-08-14T13:54:44;24.50;52.50
65231;DHT22;51813;40.666;16.602;2022-08-14T13:57:11;24.50;52.60
65231;DHT22;51813;40.666;16.602;2022-08-14T13:59:43;24.50;52.90
65231;DHT22;51813;40.666;16.602;2022-08-14T14:02:09;24.50;53.00
65231;DHT22;51813;40.666;16.602;2022-08-14T14:04:41;24.50;53.20
65231;DHT22;51813;40.666;16.602;2022-08-14T14:07:09;24.50;53.10
65231;DHT22;51813;40.666;16.602;2022-08-14T14:09:44;24.50;53.20
65231;DHT22;51813;40.666;16.602;2022-08-14T14:12:11;24.60;53.80
65231;DHT22;51813;40.666;16.602;2022-08-14T14:14:38;24.60;54.10
65231;DHT22;51813;40.666;16.602;2022-08-14T14:17:05;24.50;54.70
65231;DHT22;51813;40.666;16.602;2022-08-14T14:19:31;24.50;55.10
65231;DHT22;51813;40.666;16.602;2022-08-14T14:22:03;24.50;55.70
65231;DHT22;51813;40.666;16.602;2022-08-14T14:24:33;24.50;56.30
65231;DHT22;51813;40.666;16.602;2022-08-14T14:27:01;24.50;56.20
65231;DHT22;51813;40.666;16.602;2022-08-14T14:29:31;24.50;56.60
65231;DHT22;51813;40.666;16.602;2022-08-14T14:31:59;24.50;56.50
65231;DHT22;51813;40.666;16.602;2022-08-14T14:34:26;24.50;56.90
65231;DHT22;51813;40.666;16.602;2022-08-14T14:36:52;24.50;57.00
65231;DHT22;51813;40.666;16.602;2022-08-14T14:39:24;24.50;57.00
65231;DHT22;51813;40.666;16.602;2022-08-14T14:41:53;24.50;57.20
65231;DHT22;51813;40.666;16.602;2022-08-14T14:44:25;24.50;57.50
65231;DHT22;51813;40.666;16.602;2022-08-14T14:46:51;24.50;57.70
65231;DHT22;51813;40.666;16.602;2022-08-14T14:49:21;24.40;57.70
65231;DHT22;51813;40.666;16.602;2022-08-14T14:51:48;24.40;57.60
65231;DHT22;51813;40.666;16.602;2022-08-14T14:54:16;24.50;57.70
65231;DHT22;51813;40.666;16.602;2022-08-14T14:56:42;24.50;57.50
65231;DHT22;51813;40.666;16.602;2022-08-14T14:59:11;24.50;57.50
65231;DHT22;51813;40.666;16.602;2022-08-14T15:01:38;24.50;57.30
65231;DHT22;51813;40.666;16.602;2022-08-14T15:04:04;24.50;57.40
65231;DHT22;51813;40.666;16.602;2022-08-14T15:06:32;24.50;57.30
65231;DHT22;51813;40.666;16.602;2022-08-14T15:08:59;24.50;57.50
65231;DHT22;51813;40.666;16.602;2022-08-14T15:11:26;24.40;57.50
65231;DHT22;51813;40.666;16.602;2022-08-14T15:13:53;24.40;57.50
65231;DHT22;51813;40.666;16.602;2022-08-14T15:16:19;24.40;57.40
65231;DHT22;51813;40.666;16.602;2022-08-14T15:18:45;24.50;57.50
65231;DHT22;51813;40.666;16.602;2022-08-14T15:21:12;24.50;57.40
65231;DHT22;51813;40.666;16.602;2022-08-14T15:23:38;24.50;57.30
65231;DHT22;51813;40.666;16.602;2022-08-14T15:26:06;24.50;57.20
65231;DHT22;51813;40.666;16.602;2022-08-14T15:28:31;24.50;57.00
65231;DHT22;51813;40.666;16.602;2022-08-14T15:30:59;24.50;57.00
65231;DHT22;51813;40.666;16.602;2022-08-14T15:33:25;24.50;57.20
65231;DHT22;51813;40.666;16.602;2022-08-14T15:36:10;24.50;57.10
65231;DHT22;51813;40.666;16.602;2022-08-14T15:38:36;24.40;57.10
65231;DHT22;51813;40.666;16.602;2022-08-14T15:41:03;24.40;57.30
65231;DHT22;51813;40.666;16.602;2022-08-14T15:43:30;24.40;57.20
65231;DHT22;51813;40.666;16.602;2022-08-14T15:46:02;24.50;57.10
65231;DHT22;51813;40.666;16.602;2022-08-14T15:48:29;24.50;57.10
65231;DHT22;51813;40.666;16.602;2022-08-14T15:50:56;24.50;57.10